createdAt,value
2018-12-25T00:02:10.717Z,51.23
2018-12-25T00:04:40.632Z,56.08
2018-12-25T00:07:10.643Z,28.83
2018-12-25T00:09:40.558Z,14.40
2018-12-25T00:12:10.512Z,19.13
2018-12-25T00:14:40.616Z,13.23
2018-12-25T00:17:10.540Z,14.27
2018-12-25T00:19:40.499Z,9.27
2018-12-25T00:22:10.443Z,9.53
2018-12-25T00:24:40.404Z,6.00
2018-12-25T00:27:10.356Z,4.97
2018-12-25T00:29:40.303Z,2.22
2018-12-25T00:32:10.248Z,4.70
2018-12-25T00:34:40.233Z,4.00
2018-12-25T00:37:10.181Z,9.90
2018-12-25T00:39:40.123Z,8.43
2018-12-25T00:42:10.067Z,8.80
2018-12-25T00:44:40.047Z,10.40
2018-12-25T00:47:10.067Z,11.10
2018-12-25T00:49:39.996Z,12.73
2018-12-25T00:52:09.959Z,9.70
2018-12-25T00:54:39.920Z,5.87
2018-12-25T00:57:09.855Z,4.30
2018-12-25T00:59:39.823Z,3.37
2018-12-25T01:02:09.831Z,11.60
2018-12-25T01:04:39.848Z,6.43
2018-12-25T01:07:09.836Z,3.70
2018-12-25T01:09:39.806Z,7.63
2018-12-25T01:12:09.815Z,5.90
2018-12-25T01:14:39.783Z,8.40
2018-12-25T01:17:09.732Z,3.87
2018-12-25T01:19:39.681Z,4.73
2018-12-25T01:22:09.729Z,5.03
2018-12-25T01:24:39.685Z,6.93
2018-12-25T01:27:09.679Z,9.07
2018-12-25T01:29:39.646Z,53.63
2018-12-25T01:32:09.655Z,14.43
2018-12-25T01:34:39.665Z,14.03
2018-12-25T01:37:09.770Z,8.67
2018-12-25T01:39:39.748Z,4.17
2018-12-25T01:42:09.686Z,3.80
2018-12-25T01:44:39.663Z,4.37
2018-12-25T01:47:09.576Z,5.17
2018-12-25T01:49:39.559Z,9.80
2018-12-25T01:52:09.527Z,6.60
2018-12-25T01:54:39.494Z,11.57
2018-12-25T01:57:09.527Z,8.40
2018-12-25T01:59:39.574Z,6.03
2018-12-25T02:02:09.528Z,5.93
2018-12-25T02:04:39.879Z,7.07
2018-12-25T02:07:09.866Z,15.30
2018-12-25T02:09:39.919Z,9.70
2018-12-25T02:12:09.936Z,14.40
2018-12-25T02:14:40.107Z,10.00
2018-12-25T02:17:10.076Z,8.30
2018-12-25T02:19:40.562Z,7.50
2018-12-25T02:22:10.642Z,11.77
2018-12-25T02:24:40.636Z,10.70
2018-12-25T02:27:10.643Z,11.57
2018-12-25T02:29:40.696Z,10.10
2018-12-25T02:32:10.668Z,10.03
2018-12-25T02:34:40.703Z,10.40
2018-12-25T02:37:10.743Z,18.27
2018-12-25T02:39:40.815Z,12.73
2018-12-25T02:42:10.859Z,11.17
2018-12-25T02:44:40.916Z,15.10
2018-12-25T02:47:10.984Z,11.30
2018-12-25T02:49:50.016Z,11.00
2018-12-25T02:52:12.687Z,7.57
2018-12-25T02:54:42.619Z,5.73
2018-12-25T02:57:12.695Z,5.17
2018-12-25T02:59:42.766Z,5.20
2018-12-25T03:02:12.728Z,5.20
2018-12-25T03:04:42.748Z,4.27
2018-12-25T03:07:12.808Z,3.90
2018-12-25T03:09:42.860Z,3.60
2018-12-25T03:12:12.831Z,9.10
2018-12-25T03:14:42.830Z,11.20
2018-12-25T03:17:12.825Z,8.23
2018-12-25T03:19:42.779Z,9.97
2018-12-25T03:22:12.795Z,6.20
2018-12-25T03:24:42.782Z,9.93
2018-12-25T03:27:12.795Z,11.80
2018-12-25T03:29:42.841Z,7.70
2018-12-25T03:32:12.831Z,6.30
2018-12-25T03:34:42.824Z,6.20
2018-12-25T03:37:12.894Z,7.10
2018-12-25T03:39:42.813Z,9.93
2018-12-25T03:42:12.897Z,6.60
2018-12-25T03:44:42.939Z,9.83
2018-12-25T03:47:12.922Z,7.53
2018-12-25T03:49:42.861Z,8.40
2018-12-25T03:52:12.841Z,13.13
2018-12-25T03:54:42.850Z,5.27
2018-12-25T03:57:12.800Z,4.30
2018-12-25T03:59:42.863Z,4.13
2018-12-25T04:02:12.805Z,3.53
2018-12-25T04:04:42.780Z,3.90
2018-12-25T04:07:12.803Z,4.50
2018-12-25T04:09:42.724Z,7.47
2018-12-25T04:12:12.679Z,6.27
2018-12-25T04:14:42.853Z,6.23
2018-12-25T04:17:12.927Z,8.60
2018-12-25T04:19:42.838Z,5.80
2018-12-25T04:22:12.817Z,5.63
2018-12-25T04:24:42.868Z,5.67
2018-12-25T04:27:12.866Z,8.60
2018-12-25T04:29:42.847Z,4.80
2018-12-25T04:32:12.923Z,6.13
2018-12-25T04:34:42.941Z,5.70
2018-12-25T04:37:13.119Z,4.40
2018-12-25T04:39:43.153Z,8.00
2018-12-25T04:42:13.203Z,9.10
2018-12-25T04:44:43.162Z,6.73
2018-12-25T04:47:13.114Z,18.00
2018-12-25T04:49:43.127Z,7.33
2018-12-25T04:52:13.103Z,8.60
2018-12-25T04:54:43.176Z,5.50
2018-12-25T04:57:13.318Z,8.80
2018-12-25T04:59:43.303Z,10.70
2018-12-25T05:02:13.252Z,11.10
2018-12-25T05:04:43.283Z,7.47
2018-12-25T05:07:13.331Z,6.90
2018-12-25T05:09:43.281Z,4.00
2018-12-25T05:12:13.336Z,4.03
2018-12-25T05:14:43.259Z,3.77
2018-12-25T05:17:13.319Z,2.37
2018-12-25T05:19:43.303Z,3.57
2018-12-25T05:22:13.251Z,2.40
2018-12-25T05:24:43.242Z,2.87
2018-12-25T05:27:13.234Z,2.50
2018-12-25T05:29:43.305Z,3.03
2018-12-25T05:32:13.295Z,2.47
2018-12-25T05:34:43.364Z,2.10
2018-12-25T05:37:13.304Z,2.43
2018-12-25T05:39:43.370Z,2.53
2018-12-25T05:42:13.418Z,2.90
2018-12-25T05:44:43.523Z,2.60
2018-12-25T05:47:13.619Z,3.57
2018-12-25T05:49:43.571Z,2.90
2018-12-25T05:52:13.653Z,3.30
2018-12-25T05:54:43.603Z,3.30
2018-12-25T05:57:13.638Z,3.93
2018-12-25T05:59:43.806Z,2.27
2018-12-25T06:02:13.803Z,2.90
2018-12-25T06:04:43.787Z,3.90
2018-12-25T06:07:13.856Z,5.30
2018-12-25T06:09:43.862Z,8.80
2018-12-25T06:12:13.944Z,3.13
2018-12-25T06:14:43.887Z,8.57
2018-12-25T06:17:13.927Z,3.60
2018-12-25T06:19:43.993Z,6.83
2018-12-25T06:22:13.957Z,2.63
2018-12-25T06:24:44.080Z,7.90
2018-12-25T06:27:14.057Z,3.73
2018-12-25T06:29:44.111Z,8.40
2018-12-25T06:32:14.108Z,3.03
2018-12-25T06:34:44.384Z,6.63
2018-12-25T06:37:14.447Z,5.90
2018-12-25T06:39:44.407Z,3.27
2018-12-25T06:42:14.448Z,4.23
2018-12-25T06:44:44.416Z,3.30
2018-12-25T06:47:14.432Z,10.37
2018-12-25T06:49:44.403Z,2.90
2018-12-25T06:52:14.380Z,2.53
2018-12-25T06:54:44.372Z,4.67
2018-12-25T06:57:14.346Z,2.33
2018-12-25T06:59:44.403Z,3.20
2018-12-25T07:02:14.424Z,2.07
2018-12-25T07:04:44.488Z,3.90
2018-12-25T07:07:14.559Z,2.17
2018-12-25T07:09:44.579Z,3.00
2018-12-25T07:12:14.627Z,6.63
2018-12-25T07:14:44.611Z,2.73
2018-12-25T07:17:14.541Z,7.10
2018-12-25T07:19:44.531Z,3.70
2018-12-25T07:22:14.495Z,2.90
2018-12-25T07:24:44.459Z,6.53
2018-12-25T07:27:14.519Z,4.13
2018-12-25T07:29:44.502Z,5.47
2018-12-25T07:32:14.503Z,5.13
2018-12-25T07:34:44.476Z,4.13
2018-12-25T07:37:14.398Z,10.07
2018-12-25T07:39:44.363Z,3.47
2018-12-25T07:42:14.416Z,4.53
2018-12-25T07:44:44.385Z,7.40
2018-12-25T07:47:14.349Z,7.90
2018-12-25T07:49:44.364Z,5.00
2018-12-25T07:52:14.328Z,5.50
2018-12-25T07:54:44.365Z,12.23
2018-12-25T07:57:14.436Z,8.33
2018-12-25T07:59:44.400Z,11.17
2018-12-25T08:02:14.519Z,11.30
2018-12-25T08:04:44.485Z,12.43
2018-12-25T08:07:14.432Z,10.17
2018-12-25T08:09:47.405Z,7.30
2018-12-25T08:12:17.341Z,9.90
2018-12-25T08:14:47.355Z,7.60
2018-12-25T08:17:17.432Z,10.63
2018-12-25T08:19:47.391Z,9.10
2018-12-25T08:22:17.336Z,13.10
2018-12-25T08:24:47.364Z,7.53
2018-12-25T08:27:17.327Z,16.30
2018-12-25T08:29:47.359Z,5.00
2018-12-25T08:32:17.320Z,6.13
2018-12-25T08:34:47.278Z,9.07
2018-12-25T08:37:17.215Z,4.10
2018-12-25T08:39:47.189Z,7.87
2018-12-25T08:42:17.130Z,6.13
2018-12-25T08:44:47.134Z,4.60
2018-12-25T08:47:17.103Z,8.83
2018-12-25T08:49:47.081Z,11.30
2018-12-25T08:52:17.023Z,8.07
2018-12-25T08:54:47.066Z,8.20
2018-12-25T08:57:20.106Z,8.05
2018-12-25T08:59:50.175Z,10.37
2018-12-25T09:02:20.219Z,6.57
2018-12-25T09:04:50.160Z,7.30
2018-12-25T09:07:20.146Z,9.17
2018-12-25T09:09:50.176Z,14.40
2018-12-25T09:12:20.192Z,15.33
2018-12-25T09:14:50.159Z,9.70
2018-12-25T09:17:20.232Z,9.60
2018-12-25T09:19:50.235Z,15.60
2018-12-25T09:22:20.227Z,8.63
2018-12-25T09:24:50.287Z,7.70
2018-12-25T09:27:20.307Z,9.00
2018-12-25T09:29:50.360Z,12.10
2018-12-25T09:32:20.319Z,14.67
2018-12-25T09:34:50.354Z,14.17
2018-12-25T09:37:20.427Z,9.30
2018-12-25T09:39:50.374Z,16.83
2018-12-25T09:42:20.409Z,9.30
2018-12-25T09:44:50.453Z,13.53
2018-12-25T09:47:20.408Z,10.07
2018-12-25T09:49:50.435Z,9.17
2018-12-25T09:52:20.532Z,11.10
2018-12-25T09:54:50.488Z,13.57
2018-12-25T09:57:20.445Z,7.37
2018-12-25T09:59:50.410Z,10.70
2018-12-25T10:02:20.420Z,9.87
2018-12-25T10:04:50.651Z,7.20
2018-12-25T10:07:23.544Z,15.50
2018-12-25T10:09:53.702Z,6.93
2018-12-25T10:12:23.639Z,6.03
2018-12-25T10:14:53.808Z,9.23
2018-12-25T10:17:23.815Z,11.57
2018-12-25T10:19:53.827Z,8.70
2018-12-25T10:22:23.898Z,38.83
2018-12-25T10:24:53.904Z,12.30
2018-12-25T10:27:23.826Z,7.87
2018-12-25T10:29:54.039Z,10.30
2018-12-25T10:32:23.995Z,14.60
2018-12-25T10:34:54.074Z,11.23
2018-12-25T10:37:24.179Z,9.03
2018-12-25T10:39:54.272Z,10.20
2018-12-25T10:42:24.216Z,16.67
2018-12-25T10:44:55.168Z,12.03
2018-12-25T10:47:25.112Z,7.60
2018-12-25T10:49:55.136Z,9.73
2018-12-25T10:52:25.208Z,21.43
2018-12-25T10:54:57.036Z,20.73
2018-12-25T10:57:27.150Z,10.67
2018-12-25T10:59:57.144Z,14.40
2018-12-25T11:02:27.319Z,11.30
2018-12-25T11:04:57.257Z,12.30
2018-12-25T11:07:27.306Z,9.77
2018-12-25T11:09:59.999Z,15.47
2018-12-25T11:12:29.994Z,12.90
2018-12-25T11:15:00.147Z,16.43
2018-12-25T11:17:30.190Z,9.80
2018-12-25T11:20:00.158Z,16.40
2018-12-25T11:22:30.233Z,11.03
2018-12-25T11:25:00.283Z,14.33
2018-12-25T11:27:30.330Z,16.03
2018-12-25T11:30:00.375Z,14.73
2018-12-25T11:32:30.450Z,15.70
2018-12-25T11:35:00.487Z,13.83
2018-12-25T11:37:30.471Z,17.73
2018-12-25T11:40:00.514Z,19.10
2018-12-25T11:42:30.503Z,15.23
2018-12-25T11:45:00.526Z,20.80
2018-12-25T11:47:30.577Z,27.80
2018-12-25T11:50:00.505Z,24.00
2018-12-25T11:52:30.488Z,18.87
2018-12-25T11:55:00.435Z,29.57
2018-12-25T11:57:30.501Z,13.47
2018-12-25T12:00:00.500Z,16.93
2018-12-25T12:02:30.480Z,13.57
2018-12-25T12:05:00.460Z,17.03
2018-12-25T12:07:30.547Z,25.20
2018-12-25T12:10:00.591Z,26.27
2018-12-25T12:12:30.643Z,26.40
2018-12-25T12:15:00.614Z,17.43
2018-12-25T12:17:30.659Z,23.70
2018-12-25T12:20:00.870Z,19.90
2018-12-25T12:22:37.006Z,17.77
2018-12-25T12:25:02.568Z,20.63
2018-12-25T12:27:32.571Z,16.23
2018-12-25T12:30:02.633Z,22.57
2018-12-25T12:32:32.551Z,26.23
2018-12-25T12:35:02.600Z,22.47
2018-12-25T12:37:32.632Z,23.50
2018-12-25T12:40:02.655Z,21.07
2018-12-25T12:42:32.588Z,13.57
2018-12-25T12:45:02.576Z,20.10
2018-12-25T12:47:32.564Z,23.70
2018-12-25T12:50:02.554Z,18.10
2018-12-25T12:52:32.560Z,15.30
2018-12-25T12:55:02.727Z,16.73
2018-12-25T12:57:33.159Z,15.03
2018-12-25T13:00:03.248Z,14.10
2018-12-25T13:02:33.293Z,12.57
2018-12-25T13:05:03.338Z,12.47
2018-12-25T13:07:33.321Z,9.40
2018-12-25T13:10:04.138Z,12.70
2018-12-25T13:12:34.189Z,10.47
2018-12-25T13:15:04.743Z,12.33
2018-12-25T13:17:34.680Z,11.93
2018-12-25T13:20:05.156Z,20.23
2018-12-25T13:22:35.135Z,9.90
2018-12-25T13:25:05.403Z,10.20
2018-12-25T13:27:35.422Z,11.57
2018-12-25T13:30:06.676Z,9.30
2018-12-25T13:32:36.612Z,8.70
2018-12-25T13:35:06.795Z,9.20
2018-12-25T13:37:36.865Z,8.20
2018-12-25T13:40:07.048Z,8.60
2018-12-25T13:42:37.139Z,9.23
2018-12-25T13:45:07.247Z,11.12
2018-12-25T13:47:37.275Z,11.57
2018-12-25T13:50:08.928Z,10.77
2018-12-25T13:52:38.878Z,9.40
2018-12-25T13:55:08.813Z,12.60
2018-12-25T13:57:38.776Z,13.77
2018-12-25T14:00:08.982Z,14.10
2018-12-25T14:02:38.932Z,8.73
2018-12-25T14:05:09.115Z,11.83
2018-12-25T14:07:39.182Z,12.40
2018-12-25T14:10:09.467Z,9.83
2018-12-25T14:12:39.408Z,10.77
2018-12-25T14:15:09.561Z,13.93
2018-12-25T14:17:39.536Z,14.07
2018-12-25T14:20:09.560Z,11.87
2018-12-25T14:22:39.609Z,9.27
2018-12-25T14:25:09.660Z,9.67
2018-12-25T14:27:39.588Z,10.90
2018-12-25T14:30:09.916Z,9.53
2018-12-25T14:32:39.961Z,9.87
2018-12-25T14:35:09.906Z,11.03
2018-12-25T14:37:39.992Z,10.20
2018-12-25T14:40:10.019Z,10.70
2018-12-25T14:42:39.974Z,11.33
2018-12-25T14:45:09.944Z,9.40
2018-12-25T14:47:39.892Z,13.57
2018-12-25T14:50:09.919Z,13.23
2018-12-25T14:52:39.917Z,8.73
2018-12-25T14:55:09.844Z,10.20
2018-12-25T14:57:39.813Z,12.70
2018-12-25T15:00:10.678Z,16.43
2018-12-25T15:02:40.719Z,9.53
2018-12-25T15:05:13.072Z,13.53
2018-12-25T15:07:43.466Z,12.90
2018-12-25T15:10:13.494Z,12.80
2018-12-25T15:12:43.455Z,13.40
2018-12-25T15:15:13.464Z,14.43
2018-12-25T15:17:43.617Z,15.00
2018-12-25T15:20:13.561Z,13.90
2018-12-25T15:22:43.497Z,12.23
2018-12-25T15:25:13.535Z,13.17
2018-12-25T15:27:43.497Z,13.40
2018-12-25T15:30:13.470Z,10.27
2018-12-25T15:32:43.400Z,13.60
2018-12-25T15:35:13.466Z,11.67
2018-12-25T15:37:43.410Z,21.27
2018-12-25T15:40:13.372Z,16.37
2018-12-25T15:42:43.315Z,16.23
2018-12-25T15:45:13.280Z,17.70
2018-12-25T15:47:43.224Z,11.67
2018-12-25T15:50:13.260Z,13.30
2018-12-25T15:52:43.367Z,18.87
2018-12-25T15:55:13.356Z,18.47
2018-12-25T15:57:43.416Z,13.53
2018-12-25T16:00:16.677Z,11.23
2018-12-25T16:02:46.801Z,12.50
2018-12-25T16:05:16.911Z,12.97
2018-12-25T16:07:46.880Z,19.57
2018-12-25T16:10:16.873Z,16.73
2018-12-25T16:12:46.828Z,12.83
2018-12-25T16:15:16.812Z,12.70
2018-12-25T16:17:47.055Z,10.80
2018-12-25T16:20:17.164Z,17.70
2018-12-25T16:22:47.136Z,16.50
2018-12-25T16:25:17.114Z,13.25
2018-12-25T16:27:47.068Z,11.63
2018-12-25T16:30:17.064Z,13.57
2018-12-25T16:32:47.043Z,12.70
2018-12-25T16:35:17.020Z,10.53
2018-12-25T16:37:46.987Z,10.80
2018-12-25T16:40:17.044Z,13.60
2018-12-25T16:42:47.019Z,11.00
2018-12-25T16:45:17.044Z,13.43
2018-12-25T16:47:47.012Z,13.17
2018-12-25T16:50:16.951Z,14.43
2018-12-25T16:52:46.972Z,11.00
2018-12-25T16:55:16.922Z,17.30
2018-12-25T16:57:46.847Z,13.27
2018-12-25T17:00:16.852Z,14.93
2018-12-25T17:02:46.878Z,44.83
2018-12-25T17:05:16.839Z,27.73
2018-12-25T17:07:46.850Z,25.87
2018-12-25T17:10:16.816Z,29.03
2018-12-25T17:12:46.724Z,9.77
2018-12-25T17:15:16.732Z,14.17
2018-12-25T17:17:46.700Z,14.97
2018-12-25T17:20:16.663Z,25.27
2018-12-25T17:22:46.775Z,18.00
2018-12-25T17:25:16.741Z,19.93
2018-12-25T17:27:46.675Z,18.57
2018-12-25T17:30:16.637Z,24.33
2018-12-25T17:32:46.572Z,22.70
2018-12-25T17:35:16.519Z,16.73
2018-12-25T17:37:46.479Z,20.80
2018-12-25T17:40:16.431Z,14.83
2018-12-25T17:42:46.427Z,14.43
2018-12-25T17:45:16.383Z,19.80
2018-12-25T17:47:46.364Z,13.03
2018-12-25T17:50:16.283Z,21.67
2018-12-25T17:52:46.299Z,28.03
2018-12-25T17:55:16.245Z,17.60
2018-12-25T17:57:46.211Z,16.50
2018-12-25T18:00:16.185Z,19.73
2018-12-25T18:02:46.138Z,15.37
2018-12-25T18:05:16.147Z,15.97
2018-12-25T18:07:46.131Z,15.63
2018-12-25T18:10:16.175Z,18.40
2018-12-25T18:12:46.273Z,24.90
2018-12-25T18:15:16.248Z,20.23
2018-12-25T18:17:46.172Z,30.07
2018-12-25T18:20:16.136Z,27.37
2018-12-25T18:22:46.196Z,27.37
2018-12-25T18:25:16.219Z,24.67
2018-12-25T18:27:46.165Z,23.87
2018-12-25T18:30:16.252Z,20.73
2018-12-25T18:32:46.215Z,22.40
2018-12-25T18:35:16.190Z,19.43
2018-12-25T18:37:46.143Z,20.43
2018-12-25T18:40:16.255Z,17.30
2018-12-25T18:42:47.220Z,19.47
2018-12-25T18:45:17.268Z,21.63
2018-12-25T18:47:47.285Z,20.10
2018-12-25T18:50:17.329Z,23.10
2018-12-25T18:52:47.295Z,18.40
2018-12-25T18:55:17.254Z,21.60
2018-12-25T18:57:47.203Z,21.23
2018-12-25T19:00:17.172Z,21.03
2018-12-25T19:02:47.142Z,22.43
2018-12-25T19:05:17.143Z,23.87
2018-12-25T19:07:47.123Z,16.33
2018-12-25T19:10:17.064Z,16.40
2018-12-25T19:12:47.007Z,17.17
2018-12-25T19:15:27.905Z,22.30
2018-12-25T19:17:59.403Z,19.53
2018-12-25T19:20:29.402Z,15.33
2018-12-25T19:22:59.407Z,14.13
2018-12-25T19:25:29.464Z,19.40
2018-12-25T19:27:59.492Z,33.27
2018-12-25T19:30:31.488Z,31.13
2018-12-25T19:33:01.403Z,29.60
2018-12-25T19:35:31.364Z,29.27
2018-12-25T19:38:01.354Z,29.07
2018-12-25T19:40:31.466Z,37.83
2018-12-25T19:43:01.412Z,39.43
2018-12-25T19:45:33.335Z,27.20
2018-12-25T19:48:03.415Z,25.87
2018-12-25T19:50:33.597Z,21.20
2018-12-25T19:53:03.922Z,21.60
2018-12-25T19:55:33.948Z,17.83
2018-12-25T19:58:04.010Z,23.80
2018-12-25T20:00:34.124Z,21.53
2018-12-25T20:03:23.786Z,18.70
2018-12-25T20:06:40.445Z,36.90
2018-12-25T20:09:51.475Z,40.33
2018-12-25T20:13:01.063Z,31.00
2018-12-25T20:16:14.875Z,24.70
2018-12-25T20:19:20.246Z,27.43
2018-12-25T20:22:26.866Z,21.23
2018-12-25T20:25:20.083Z,26.00
2018-12-25T20:28:16.592Z,17.10
2018-12-25T20:31:27.712Z,22.33
2018-12-25T20:34:47.438Z,33.00
2018-12-25T20:38:00.260Z,37.67
2018-12-25T20:41:08.263Z,38.27
2018-12-25T20:44:14.108Z,31.10
2018-12-25T20:47:24.208Z,32.67
2018-12-25T20:50:33.372Z,37.80
2018-12-25T20:53:33.814Z,38.43
2018-12-25T20:56:44.583Z,31.27
2018-12-25T20:59:55.511Z,20.10
2018-12-25T21:03:21.221Z,24.70
2018-12-25T21:06:28.107Z,12.93
2018-12-25T21:09:40.265Z,13.97
2018-12-25T21:12:51.610Z,21.03
2018-12-25T21:16:17.789Z,14.27
2018-12-25T21:19:55.810Z,10.47
2018-12-25T21:23:01.355Z,10.67
2018-12-25T21:26:07.221Z,15.80
2018-12-25T21:28:37.451Z,20.07
2018-12-25T21:31:08.103Z,30.27
2018-12-25T21:33:38.320Z,26.93
2018-12-25T21:36:08.468Z,35.73
2018-12-25T21:38:39.835Z,35.80
2018-12-25T21:41:10.696Z,42.05
2018-12-25T21:43:40.898Z,41.83
2018-12-25T21:46:11.375Z,48.77
2018-12-25T21:48:42.528Z,41.80
2018-12-25T21:51:12.633Z,45.77
2018-12-25T21:53:42.680Z,36.10
2018-12-25T21:56:13.231Z,50.07
2018-12-25T21:58:43.361Z,42.60
2018-12-25T22:01:13.615Z,33.93
2018-12-25T22:03:43.959Z,34.87
2018-12-25T22:06:13.935Z,28.23
2018-12-25T22:08:43.899Z,33.60
2018-12-25T22:11:13.879Z,29.27
2018-12-25T22:13:43.922Z,28.57
2018-12-25T22:16:13.935Z,26.77
2018-12-25T22:18:43.898Z,20.37
2018-12-25T22:21:13.872Z,20.60
2018-12-25T22:23:43.830Z,16.60
2018-12-25T22:26:13.753Z,18.33
2018-12-25T22:28:43.716Z,27.37
2018-12-25T22:31:13.660Z,19.87
2018-12-25T22:33:43.585Z,16.93
2018-12-25T22:36:13.653Z,24.67
2018-12-25T22:38:43.606Z,25.53
2018-12-25T22:41:13.595Z,19.53
2018-12-25T22:43:43.576Z,14.30
2018-12-25T22:46:13.523Z,16.80
2018-12-25T22:48:43.456Z,16.23
2018-12-25T22:51:13.440Z,18.77
2018-12-25T22:53:43.411Z,16.52
2018-12-25T22:56:13.368Z,21.13
2018-12-25T22:58:43.326Z,17.87
2018-12-25T23:01:13.470Z,18.70
2018-12-25T23:03:43.447Z,24.10
2018-12-25T23:06:13.409Z,18.70
2018-12-25T23:08:43.359Z,22.40
2018-12-25T23:11:13.306Z,17.60
2018-12-25T23:13:43.282Z,19.53
2018-12-25T23:16:13.220Z,20.40
2018-12-25T23:18:43.153Z,17.23
2018-12-25T23:21:13.154Z,18.93
2018-12-25T23:23:43.087Z,24.00
2018-12-25T23:26:13.048Z,22.87
2018-12-25T23:28:43.048Z,20.03
2018-12-25T23:31:13.045Z,18.63
2018-12-25T23:33:43.107Z,19.50
2018-12-25T23:36:14.317Z,15.20
2018-12-25T23:38:44.603Z,15.23
2018-12-25T23:41:14.563Z,15.50
2018-12-25T23:43:44.619Z,14.07
2018-12-25T23:46:14.602Z,14.07
2018-12-25T23:48:44.555Z,17.33
2018-12-25T23:51:14.547Z,16.60
2018-12-25T23:53:44.496Z,12.53
2018-12-25T23:56:14.484Z,11.60
2018-12-25T23:58:44.483Z,12.30
